Time;durP1;ratioP1;P1;durP2;ratioP2;P2;SDS_P1;SDS_P2;PMS_P1;PMS_P2;Temp;Humidity;BMP_temperature;BMP_pressure;BME280_temperature;BME280_humidity;BME280_pressure;Samples;Min_cycle;Max_cycle;Signal;HPM_P1;HPM_P2
2021/12/07 00:00:30;;;;;;;10.07;5.35;;;;;;;5.75;79.29;93508.69;5155557;27;20033;-73
2021/12/07 00:02:55;;;;;;;6.95;4.53;;;;;;;5.75;78.74;93506.91;5155239;27;20132;-73
2021/12/07 00:05:21;;;;;;;6.90;4.70;;;;;;;5.70;78.66;93518.56;5155075;27;20055;-73
2021/12/07 00:07:46;;;;;;;8.65;6.20;;;;;;;5.65;78.57;93520.69;5155156;27;20397;-73
2021/12/07 00:10:12;;;;;;;5.93;3.80;;;;;;;5.67;78.22;93514.47;5155161;27;20045;-73
2021/12/07 00:12:40;;;;;;;9.20;5.43;;;;;;;5.66;78.32;93515.44;5155027;27;20026;-73
2021/12/07 00:15:07;;;;;;;8.65;5.15;;;;;;;5.38;78.86;93514.34;5153781;27;20121;-73
2021/12/07 00:17:32;;;;;;;6.93;4.55;;;;;;;5.36;79.07;93517.03;5153665;27;20019;-73
2021/12/07 00:19:58;;;;;;;11.82;6.95;;;;;;;5.37;78.68;93513.50;5155018;27;20038;-73
2021/12/07 00:22:24;;;;;;;10.93;6.15;;;;;;;5.26;79.46;93507.63;5153499;27;20035;-73
2021/12/07 00:24:49;;;;;;;10.35;6.85;;;;;;;5.10;80.27;93516.63;5119103;27;20099;-73
2021/12/07 00:27:15;;;;;;;9.85;6.47;;;;;;;5.09;79.99;93514.16;5136183;27;20023;-73
2021/12/07 00:29:40;;;;;;;7.82;5.53;;;;;;;4.83;79.54;93499.09;5136005;27;20110;-73
2021/12/07 00:32:30;;;;;;;5.63;4.43;;;;;;;4.66;81.25;93523.59;5154466;27;20023;-73
2021/12/07 00:37:26;;;;;;;4.50;3.60;;;;;;;4.36;81.96;93526.84;5153250;27;20030;-73
2021/12/07 00:39:51;;;;;;;5.13;3.85;;;;;;;4.35;81.47;93522.66;5153333;27;20165;-73
2021/12/07 00:42:16;;;;;;;5.88;3.47;;;;;;;4.36;81.79;93519.13;5153043;27;20034;-72
2021/12/07 00:44:42;;;;;;;5.10;3.90;;;;;;;4.41;81.75;93524.72;5118729;27;20023;-73
2021/12/07 00:47:07;;;;;;;5.40;3.63;;;;;;;4.51;81.56;93521.44;5154295;27;20022;-73
2021/12/07 00:49:33;;;;;;;5.30;3.72;;;;;;;4.60;80.65;93518.13;5152481;27;20039;-72
2021/12/07 00:51:58;;;;;;;7.22;4.38;;;;;;;4.43;81.63;93514.31;5154051;27;20033;-72
2021/12/07 00:54:23;;;;;;;7.32;4.80;;;;;;;4.24;82.30;93520.13;5152863;27;20034;-72
2021/12/07 00:56:49;;;;;;;7.50;4.70;;;;;;;4.23;82.28;93505.59;5118333;27;20023;-73
2021/12/07 00:59:14;;;;;;;7.45;4.55;;;;;;;4.34;82.31;93513.28;5118352;27;20030;-74
2021/12/07 01:01:40;;;;;;;6.78;5.05;;;;;;;4.38;82.46;93513.88;5135411;27;20109;-73
2021/12/07 01:04:05;;;;;;;7.88;5.22;;;;;;;4.21;82.85;93507.50;5153892;27;20034;-72
2021/12/07 01:06:46;;;;;;;6.20;3.90;;;;;;;4.40;82.10;93512.81;5153839;27;20061;-72
2021/12/07 01:25:40;;;;;;;6.03;3.00;;;;;;;4.61;80.26;93504.34;5153946;27;20096;-73
2021/12/07 01:28:48;;;;;;;4.93;3.10;;;;;;;4.69;80.30;93522.53;5153380;27;20477;-73
2021/12/07 01:31:07;;;;;;;4.78;2.88;;;;;;;4.56;80.72;93521.88;5146438;27;20049;-73
2021/12/07 01:51:51;;;;;;;2.83;1.67;;;;;;;4.80;79.14;93485.66;5153071;27;20053;-73
2021/12/07 01:59:49;;;;;;;3.83;1.60;;;;;;;4.77;80.30;93479.00;5152958;27;20117;-73
2021/12/07 02:02:18;;;;;;;3.63;1.50;;;;;;;4.79;80.08;93477.13;5133981;27;20055;-73
2021/12/07 02:04:44;;;;;;;3.55;1.50;;;;;;;4.76;80.37;93469.63;5151556;27;20050;-73
2021/12/07 02:07:09;;;;;;;2.95;1.80;;;;;;;4.85;80.34;93480.97;5117115;27;20026;-73
2021/12/07 02:09:37;;;;;;;3.35;1.50;;;;;;;4.75;80.39;93454.34;5151682;27;20134;-73
2021/12/07 02:12:03;;;;;;;3.60;1.52;;;;;;;4.82;79.99;93458.88;5151651;27;20485;-73
2021/12/07 02:14:30;;;;;;;3.85;1.65;;;;;;;4.88;80.28;93455.78;5144920;27;20049;-74
2021/12/07 02:16:58;;;;;;;2.40;1.40;;;;;;;4.90;80.26;93458.22;5128853;27;20450;-74
2021/12/07 02:19:23;;;;;;;2.20;1.35;;;;;;;4.97;79.64;93455.97;5151555;27;20030;-74
2021/12/07 02:21:49;;;;;;;3.03;1.40;;;;;;;4.93;80.04;93447.66;5133196;27;20122;-74
2021/12/07 02:24:15;;;;;;;2.33;1.45;;;;;;;4.99;79.80;93448.94;5134309;27;20101;-74
2021/12/07 02:26:40;;;;;;;4.15;1.50;;;;;;;5.02;79.60;93453.84;5151492;27;20091;-74
2021/12/07 02:29:06;;;;;;;4.18;1.65;;;;;;;4.97;80.58;93453.41;5152956;27;20528;-74
2021/12/07 02:31:32;;;;;;;3.22;1.52;;;;;;;4.87;80.65;93440.47;5152567;27;20408;-74
2021/12/07 02:33:58;;;;;;;6.72;4.10;;;;;;;4.92;80.51;93457.16;5134179;27;20023;-74
2021/12/07 02:36:23;;;;;;;10.98;4.85;;;;;;;4.92;80.70;93459.72;5133922;27;20027;-74
2021/12/07 02:38:48;;;;;;;9.07;5.50;;;;;;;4.85;80.43;93458.59;5151305;27;20023;-74
2021/12/07 02:41:14;;;;;;;8.50;4.60;;;;;;;4.81;79.45;93454.63;5151344;27;20039;-74
2021/12/07 02:43:39;;;;;;;4.38;2.47;;;;;;;4.64;78.40;93426.91;5116902;27;20027;-74
2021/12/07 02:46:05;;;;;;;3.83;2.75;;;;;;;4.75;79.27;93460.28;5151274;27;20106;-74
2021/12/07 02:48:30;;;;;;;4.22;2.30;;;;;;;4.73;78.15;93456.22;5152543;27;20414;-74
2021/12/07 02:50:56;;;;;;;5.35;2.67;;;;;;;4.73;77.43;93457.03;5152807;27;20031;-74
2021/12/07 02:53:24;;;;;;;5.07;2.55;;;;;;;4.73;76.83;93454.44;5151110;27;20083;-74
2021/12/07 02:55:49;;;;;;;6.90;3.72;;;;;;;4.61;77.44;93460.59;5151326;27;20038;-74
2021/12/07 02:58:15;;;;;;;7.28;3.72;;;;;;;4.53;77.12;93470.69;5116867;27;20058;-74
2021/12/07 03:00:48;;;;;;;5.72;2.97;;;;;;;3.95;78.77;93451.22;5134097;27;20023;-74
2021/12/07 03:03:14;;;;;;;6.05;3.20;;;;;;;3.69;80.08;93460.16;5151229;27;20037;-74
2021/12/07 03:27:50;;;;;;;6.18;4.07;;;;;;;3.47;80.79;93425.06;5155146;27;20034;-73
2021/12/07 03:30:15;;;;;;;16.40;8.18;;;;;;;3.72;80.71;93439.38;5137301;27;20031;-74
2021/12/07 03:32:40;;;;;;;9.90;6.00;;;;;;;3.77;79.74;93443.22;5155838;27;20030;-73
2021/12/07 03:35:06;;;;;;;10.60;6.32;;;;;;;3.86;80.28;93446.81;5154222;27;20030;-74
2021/12/07 03:37:32;;;;;;;9.68;4.88;;;;;;;3.80;79.29;93447.31;5137408;27;20049;-73
2021/12/07 03:39:57;;;;;;;13.05;6.68;;;;;;;3.75;78.53;93439.13;5137100;27;20026;-74
2021/12/07 03:42:22;;;;;;;57.47;23.40;;;;;;;3.87;77.93;93448.44;5155693;27;20023;-74
2021/12/07 03:44:48;;;;;;;36.00;15.57;;;;;;;3.85;78.14;93446.97;5154266;27;20408;-73
2021/12/07 03:47:13;;;;;;;13.98;6.63;;;;;;;3.81;77.71;93436.09;5155620;27;20026;-74
2021/12/07 03:49:39;;;;;;;7.50;4.18;;;;;;;3.80;78.70;93458.41;5136816;27;20027;-74
2021/12/07 03:52:04;;;;;;;6.28;2.60;;;;;;;3.67;77.28;93454.31;5136995;27;20039;-74
2021/12/07 03:54:30;;;;;;;4.43;2.45;;;;;;;3.33;78.57;93457.72;5155558;27;20030;-73
2021/12/07 03:56:55;;;;;;;3.53;1.85;;;;;;;3.54;77.26;93462.19;5154215;27;20026;-73
2021/12/07 03:59:21;;;;;;;4.03;2.40;;;;;;;3.25;78.03;93454.91;5153989;27;20023;-74
2021/12/07 04:01:46;;;;;;;4.88;2.83;;;;;;;3.07;78.50;93461.47;5155317;27;20030;-74
2021/12/07 04:04:12;;;;;;;3.00;1.90;;;;;;;2.77;81.11;93467.94;5136606;27;20030;-73
2021/12/07 04:06:37;;;;;;;3.78;1.80;;;;;;;2.72;80.75;93464.06;5154036;27;20118;-73
2021/12/07 04:09:03;;;;;;;3.78;2.65;;;;;;;2.45;81.86;93468.53;5136582;27;20026;-73
2021/12/07 04:11:28;;;;;;;4.10;2.50;;;;;;;2.68;81.52;93469.41;5153784;27;20037;-73
2021/12/07 04:13:54;;;;;;;2.53;1.60;;;;;;;2.77;80.82;93469.69;5153842;27;20105;-73
2021/12/07 04:16:19;;;;;;;3.53;1.73;;;;;;;2.77;79.57;93449.16;5153596;27;20015;-73
2021/12/07 04:18:45;;;;;;;17.20;13.75;;;;;;;2.93;79.22;93446.28;5136635;27;20396;-73
2021/12/07 04:21:10;;;;;;;4.65;3.30;;;;;;;2.99;77.90;93441.50;5153393;27;20023;-73
2021/12/07 04:23:36;;;;;;;3.67;2.50;;;;;;;3.11;78.90;93455.97;5153870;27;20087;-73
2021/12/07 04:26:03;;;;;;;2.90;1.83;;;;;;;3.11;78.58;93445.69;5135712;27;20381;-73
2021/12/07 04:28:28;;;;;;;3.40;2.10;;;;;;;3.14;78.74;93448.03;5154802;27;20101;-73
2021/12/07 04:30:53;;;;;;;6.30;4.63;;;;;;;3.01;77.87;93441.38;5136050;27;20038;-74
2021/12/07 04:33:19;;;;;;;14.98;12.70;;;;;;;3.02;77.52;93443.84;5153443;27;20420;-73
2021/12/07 04:35:47;;;;;;;4.22;2.70;;;;;;;2.54;78.44;93438.84;5136230;27;20473;-73
2021/12/07 04:38:13;;;;;;;6.45;3.15;;;;;;;2.47;79.18;93445.34;5136432;27;20052;-73
2021/12/07 04:40:38;;;;;;;21.08;15.93;;;;;;;2.37;79.97;93429.03;5154824;27;20415;-73
2021/12/07 04:43:04;;;;;;;7.18;5.22;;;;;;;2.62;79.68;93449.38;5154661;27;20022;-73
2021/12/07 04:48:35;;;;;;;3.28;2.28;;;;;;;2.65;79.37;93438.06;5137547;27;20027;-73
2021/12/07 04:59:10;;;;;;;7.18;5.22;;;;;;;2.52;78.99;93448.41;5153065;27;20412;-73
2021/12/07 05:01:36;;;;;;;7.90;4.20;;;;;;;2.63;79.25;93458.69;5118255;27;20030;-73
2021/12/07 05:04:08;;;;;;;14.38;12.32;;;;;;;2.41;78.59;93459.41;5153984;27;20027;-73
2021/12/07 05:06:39;;;;;;;4.97;3.13;;;;;;;2.49;77.46;93443.50;5153731;27;20047;-73
2021/12/07 05:09:22;;;;;;;31.80;26.48;;;;;;;2.13;78.62;93442.66;5154300;27;20035;-73
2021/12/07 05:12:02;;;;;;;7.60;4.70;;;;;;;2.31;78.61;93450.75;5153999;27;20038;-73
2021/12/07 05:14:31;;;;;;;5.10;3.20;;;;;;;2.46;77.40;93453.97;5152858;27;20404;-73
2021/12/07 05:17:20;;;;;;;4.50;2.55;;;;;;;2.34;77.15;93452.28;5152475;27;20500;-73
2021/12/07 05:39:27;;;;;;;3.28;2.10;;;;;;;2.35;76.50;93448.81;5152306;27;20112;-74
2021/12/07 05:41:53;;;;;;;5.20;3.80;;;;;;;2.28;76.91;93445.84;5151956;27;20420;-74
2021/12/07 05:44:19;;;;;;;17.38;10.77;;;;;;;2.12;78.25;93435.91;5134713;27;20031;-74
2021/12/07 05:46:44;;;;;;;7.90;4.65;;;;;;;2.17;77.27;93443.25;5153291;27;20029;-74
2021/12/07 05:49:10;;;;;;;4.45;2.42;;;;;;;2.19;77.49;93447.34;5151925;27;20050;-74
2021/12/07 05:51:35;;;;;;;6.65;4.68;;;;;;;2.13;78.12;93449.53;5134441;27;20428;-74
2021/12/07 05:54:01;;;;;;;5.57;2.90;;;;;;;2.11;76.84;93457.31;5134580;27;20031;-74
2021/12/07 05:56:26;;;;;;;4.63;3.33;;;;;;;2.08;77.44;93449.84;5153080;27;20023;-74
2021/12/07 05:58:51;;;;;;;6.03;2.75;;;;;;;2.13;76.66;93440.09;5151908;27;20030;-74
2021/12/07 06:01:17;;;;;;;3.80;2.20;;;;;;;2.23;76.25;93441.09;5152773;27;20412;-74
2021/12/07 06:03:42;;;;;;;6.47;3.22;;;;;;;2.00;77.56;93447.81;5153014;27;20472;-74
2021/12/07 06:06:08;;;;;;;4.43;2.58;;;;;;;2.06;77.42;93446.56;5152718;27;20119;-74
2021/12/07 06:08:33;;;;;;;4.13;2.70;;;;;;;2.03;77.03;93441.66;5151417;27;20026;-74
2021/12/07 06:10:58;;;;;;;3.80;2.30;;;;;;;1.93;77.63;93445.84;5152628;27;20472;-74
2021/12/07 06:13:24;;;;;;;4.28;2.63;;;;;;;1.94;77.49;93437.22;5134414;27;20556;-74
2021/12/07 06:15:49;;;;;;;3.63;2.63;;;;;;;1.99;78.06;93446.19;5151873;27;20700;-74
2021/12/07 06:18:15;;;;;;;5.88;3.50;;;;;;;1.80;78.20;93445.88;5151455;27;20023;-74
2021/12/07 06:20:41;;;;;;;5.75;3.80;;;;;;;1.56;78.56;93458.63;5134321;27;20043;-73
2021/12/07 06:23:08;;;;;;;4.30;2.20;;;;;;;1.73;77.71;93448.06;5152756;27;20261;-74
2021/12/07 06:25:34;;;;;;;3.28;2.08;;;;;;;1.79;76.78;93446.81;5117312;27;20488;-74
2021/12/07 06:27:59;;;;;;;4.05;2.40;;;;;;;1.84;77.26;93447.31;5134086;27;20071;-74
2021/12/07 06:30:25;;;;;;;4.93;2.10;;;;;;;1.95;76.35;93439.69;5134235;27;20488;-73
2021/12/07 06:32:50;;;;;;;6.07;3.72;;;;;;;1.82;76.77;93438.91;5151352;27;20511;-74
2021/12/07 06:35:16;;;;;;;3.97;2.80;;;;;;;1.96;77.15;93443.88;5151443;27;20507;-73
2021/12/07 06:37:41;;;;;;;3.75;2.78;;;;;;;1.93;77.21;93443.28;5151302;27;20018;-74
2021/12/07 06:40:08;;;;;;;5.25;2.60;;;;;;;1.91;76.16;93445.13;5151233;27;20046;-74
2021/12/07 06:42:36;;;;;;;3.80;2.67;;;;;;;1.83;76.17;93440.53;5134348;27;20342;-74
2021/12/07 06:45:01;;;;;;;3.58;2.50;;;;;;;1.89;76.64;93439.28;5117522;27;20412;-74
2021/12/07 06:47:26;;;;;;;3.92;2.78;;;;;;;1.09;78.63;93437.94;5151302;27;20027;-73
2021/12/07 06:49:52;;;;;;;5.07;3.00;;;;;;;1.26;78.99;93453.91;5137966;27;20393;-74
2021/12/07 06:52:17;;;;;;;8.68;4.60;;;;;;;1.31;78.80;93454.41;5156762;27;20027;-74
2021/12/07 06:54:43;;;;;;;11.52;5.63;;;;;;;1.31;78.56;93446.72;5156657;27;20031;-74
2021/12/07 06:57:08;;;;;;;9.82;4.85;;;;;;;1.45;77.42;93446.59;5155268;27;20480;-73
2021/12/07 06:59:34;;;;;;;11.57;7.32;;;;;;;1.14;78.98;93454.72;5138023;27;20054;-74
2021/12/07 07:01:59;;;;;;;10.07;4.47;;;;;;;1.05;78.58;93458.72;5156442;27;20030;-73
2021/12/07 07:04:24;;;;;;;10.55;6.40;;;;;;;0.74;79.25;93440.31;5155168;27;20026;-73
2021/12/07 07:06:51;;;;;;;10.45;7.05;;;;;;;0.79;80.12;93461.28;5156460;27;20451;-74
2021/12/07 07:09:17;;;;;;;9.50;6.03;;;;;;;0.89;80.11;93443.56;5155060;27;20060;-73
2021/12/07 07:11:42;;;;;;;7.53;4.47;;;;;;;1.08;79.75;93453.38;5155097;27;20023;-74
2021/12/07 07:14:08;;;;;;;8.05;4.88;;;;;;;1.17;78.98;93451.94;5155080;27;20091;-73
2021/12/07 07:16:34;;;;;;;8.90;4.50;;;;;;;1.09;79.27;93455.03;5137412;27;20113;-74
2021/12/07 07:18:59;;;;;;;8.55;4.35;;;;;;;1.10;78.69;93456.66;5154911;27;20035;-74
2021/12/07 07:21:25;;;;;;;5.75;4.00;;;;;;;0.64;79.87;93445.22;5154750;27;20026;-74
2021/12/07 07:23:51;;;;;;;6.65;4.43;;;;;;;0.92;79.73;93440.84;5137646;27;20079;-74
2021/12/07 07:26:16;;;;;;;8.75;6.00;;;;;;;0.75;80.03;93448.78;5154533;27;20153;-73
2021/12/07 07:28:42;;;;;;;9.38;6.00;;;;;;;0.94;79.31;93448.38;5154732;27;20015;-73
2021/12/07 07:31:08;;;;;;;9.73;6.22;;;;;;;0.99;79.44;93452.28;5137120;27;20038;-73
2021/12/07 07:33:33;;;;;;;12.30;7.97;;;;;;;0.75;79.84;93426.59;5154472;27;20028;-73
2021/12/07 07:35:59;;;;;;;8.18;4.70;;;;;;;0.61;79.81;93445.44;5154468;27;20026;-74
2021/12/07 07:38:24;;;;;;;8.15;5.00;;;;;;;0.85;79.55;93442.97;5105456;28;20028;-73
2021/12/07 07:40:50;;;;;;;7.75;5.03;;;;;;;0.96;79.57;93449.91;5096403;28;20027;-73
2021/12/07 07:43:16;;;;;;;6.82;3.90;;;;;;;0.48;80.89;93443.78;5112919;28;20034;-73
2021/12/07 07:45:43;;;;;;;6.25;4.15;;;;;;;0.76;80.44;93451.25;5113401;28;20028;-73
2021/12/07 07:48:09;;;;;;;5.45;3.95;;;;;;;0.77;80.19;93434.97;5113181;28;20031;-74
2021/12/07 07:50:34;;;;;;;4.70;3.42;;;;;;;0.87;80.02;93441.13;5113279;28;20421;-73
2021/12/07 07:53:00;;;;;;;8.80;4.75;;;;;;;0.77;80.15;93440.09;5095926;28;20027;-73
2021/12/07 07:55:25;;;;;;;6.25;4.22;;;;;;;0.32;81.86;93439.66;5114588;28;20462;-73
2021/12/07 07:57:51;;;;;;;7.65;5.65;;;;;;;0.41;82.21;93439.03;5112914;28;20409;-73
2021/12/07 08:00:17;;;;;;;8.20;6.80;;;;;;;0.39;82.08;93435.78;5094870;28;20091;-73
2021/12/07 08:02:44;;;;;;;6.22;4.60;;;;;;;0.52;82.47;93437.53;5112681;28;20024;-73
2021/12/07 08:05:09;;;;;;;5.15;3.60;;;;;;;0.60;81.78;93437.84;5095642;28;20422;-73
2021/12/07 08:07:35;;;;;;;6.38;4.05;;;;;;;0.67;81.85;93446.75;5112720;28;20031;-73
2021/12/07 08:10:00;;;;;;;6.53;4.18;;;;;;;0.70;81.40;93445.72;5112471;28;20412;-73
2021/12/07 08:12:27;;;;;;;5.43;3.88;;;;;;;0.71;80.81;93450.72;5095437;28;20044;-73
2021/12/07 08:14:52;;;;;;;7.15;3.90;;;;;;;0.78;80.47;93449.41;5113841;28;20039;-74
2021/12/07 08:17:18;;;;;;;6.60;4.55;;;;;;;0.82;79.90;93450.84;5099840;28;20040;-75
2021/12/07 08:19:43;;;;;;;4.28;2.55;;;;;;;0.85;79.64;93450.63;5112637;28;20027;-73
2021/12/07 08:22:08;;;;;;;5.65;3.15;;;;;;;0.92;78.81;93450.22;5112344;28;20031;-73
2021/12/07 08:24:34;;;;;;;6.03;3.90;;;;;;;1.04;79.05;93457.09;5113221;28;20019;-73
2021/12/07 08:26:59;;;;;;;5.40;3.25;;;;;;;1.02;78.42;93453.81;5095175;28;20413;-73
2021/12/07 08:29:25;;;;;;;6.57;4.20;;;;;;;0.95;77.89;93442.34;5113462;28;20032;-74
2021/12/07 08:31:50;;;;;;;4.90;3.28;;;;;;;0.98;77.79;93457.50;5112104;28;20032;-73
2021/12/07 08:34:16;;;;;;;8.05;5.22;;;;;;;0.99;78.23;93464.25;5117495;27;20031;-74
2021/12/07 08:36:41;;;;;;;14.98;9.40;;;;;;;0.79;79.42;93466.38;5116859;27;20088;-73
2021/12/07 08:39:07;;;;;;;6.78;5.07;;;;;;;0.73;78.73;93464.25;5104437;27;20024;-73
2021/12/07 08:41:32;;;;;;;6.90;4.82;;;;;;;0.73;78.82;93474.47;5117338;27;20035;-73
2021/12/07 08:43:57;;;;;;;6.03;4.18;;;;;;;0.48;80.66;93477.00;5111920;28;20031;-73
2021/12/07 08:46:23;;;;;;;9.35;5.72;;;;;;;0.59;80.41;93482.22;5111432;28;20028;-73
2021/12/07 08:48:48;;;;;;;7.97;4.97;;;;;;;0.59;79.63;93479.66;5111764;28;20015;-73
2021/12/07 08:51:14;;;;;;;6.72;4.72;;;;;;;0.58;80.49;93496.72;5094786;28;20032;-73
2021/12/07 08:53:47;;;;;;;5.00;3.50;;;;;;;0.56;79.96;93487.53;5121098;27;20028;-74
2021/12/07 09:01:40;;;;;;;4.95;2.80;;;;;;;0.62;79.29;93494.81;5133413;27;20037;-75
2021/12/07 09:04:06;;;;;;;3.47;2.85;;;;;;;0.64;79.08;93508.28;5132066;27;20027;-75
2021/12/07 09:06:31;;;;;;;6.13;2.92;;;;;;;0.69;79.72;93501.13;5133181;27;20039;-74
2021/12/07 09:08:57;;;;;;;6.88;5.10;;;;;;;0.49;80.00;93473.50;5114896;27;20046;-75
2021/12/07 09:11:22;;;;;;;5.30;3.80;;;;;;;0.64;79.22;93482.72;5114513;27;20034;-74
2021/12/07 09:13:48;;;;;;;5.10;3.28;;;;;;;0.78;78.71;93490.31;5131848;27;20026;-75
2021/12/07 09:16:14;;;;;;;5.78;3.22;;;;;;;0.65;79.28;93466.47;5133133;27;20080;-75
2021/12/07 09:18:40;;;;;;;9.50;4.80;;;;;;;0.80;79.39;93480.78;5125014;27;20024;-74
2021/12/07 09:21:06;;;;;;;7.93;4.15;;;;;;;0.80;78.44;93470.56;5111217;28;20024;-75
2021/12/07 09:23:31;;;;;;;6.78;4.63;;;;;;;0.93;78.25;93482.56;5077142;28;20015;-74
2021/12/07 09:25:57;;;;;;;5.75;3.65;;;;;;;0.92;78.38;93486.00;5111232;28;20043;-75
2021/12/07 09:28:22;;;;;;;3.50;2.53;;;;;;;0.92;77.64;93478.34;5112018;27;20133;-72
2021/12/07 09:30:51;;;;;;;6.68;2.95;;;;;;;0.84;79.08;93489.91;5104967;27;20069;-73
2021/12/07 09:33:18;;;;;;;4.47;3.10;;;;;;;0.95;78.23;93473.88;5110963;27;20526;-73
2021/12/07 09:35:43;;;;;;;5.28;3.13;;;;;;;1.00;78.07;93476.91;5126085;27;20027;-73
2021/12/07 09:38:09;;;;;;;5.47;3.63;;;;;;;0.97;78.01;93473.75;5116420;27;20103;-72
2021/12/07 09:40:34;;;;;;;5.80;3.50;;;;;;;1.02;78.48;93464.03;5132643;27;20042;-73
2021/12/07 09:43:00;;;;;;;6.03;4.03;;;;;;;1.04;78.23;93469.88;5118160;27;20027;-72
2021/12/07 09:45:26;;;;;;;6.35;3.70;;;;;;;1.06;77.77;93470.59;5127312;27;20615;-71
2021/12/07 09:47:52;;;;;;;5.95;4.78;;;;;;;0.89;78.48;93464.88;5111013;27;20478;-73
2021/12/07 09:50:19;;;;;;;9.20;6.05;;;;;;;0.87;77.92;93448.81;5132684;27;20036;-72
2021/12/07 09:52:45;;;;;;;8.35;4.65;;;;;;;0.94;77.80;93463.72;5112537;27;20122;-72
2021/12/07 09:55:11;;;;;;;9.45;5.20;;;;;;;0.92;77.79;93468.97;5124967;27;20038;-73
2021/12/07 09:57:36;;;;;;;4.97;3.80;;;;;;;1.01;77.09;93472.63;5132020;27;20118;-72
2021/12/07 10:00:04;;;;;;;7.88;4.45;;;;;;;0.96;77.54;93475.50;5126438;27;20026;-73
2021/12/07 10:02:30;;;;;;;4.53;3.10;;;;;;;0.92;78.38;93463.84;5149857;27;20565;-71
2021/12/07 10:04:55;;;;;;;13.85;7.50;;;;;;;1.03;76.95;93463.94;5123978;27;20055;-72
2021/12/07 10:07:20;;;;;;;23.70;9.10;;;;;;;0.94;77.54;93471.41;5131803;27;20019;-72
2021/12/07 10:09:47;;;;;;;53.70;19.80;;;;;;;0.89;77.87;93476.81;5130256;27;20035;-72
2021/12/07 10:12:20;;;;;;;14.70;6.78;;;;;;;0.95;77.13;93489.22;5109923;28;20034;-72
2021/12/07 10:14:45;;;;;;;7.45;4.57;;;;;;;0.94;77.10;93466.28;5120386;27;20035;-71
2021/12/07 10:17:11;;;;;;;8.25;5.35;;;;;;;0.82;77.22;93465.38;5131571;27;20106;-72
2021/12/07 10:19:38;;;;;;;8.57;6.05;;;;;;;0.92;77.04;93460.44;5130427;27;20413;-73
2021/12/07 10:22:08;;;;;;;11.88;6.50;;;;;;;0.83;77.42;93455.03;5125493;28;20027;-72
2021/12/07 10:24:39;;;;;;;8.07;4.67;;;;;;;0.89;78.06;93448.69;5113766;28;20031;-72
2021/12/07 10:27:06;;;;;;;6.70;3.90;;;;;;;0.90;78.42;93445.22;5127024;28;20281;-72
2021/12/07 10:29:31;;;;;;;5.63;3.55;;;;;;;0.93;77.90;93446.75;5110095;27;20265;-73
2021/12/07 10:32:01;;;;;;;4.88;4.00;;;;;;;1.03;78.06;93446.03;5128817;27;20024;-73
2021/12/07 10:34:33;;;;;;;6.78;4.63;;;;;;;1.09;77.42;93443.06;5109695;27;20050;-73
2021/12/07 10:37:04;;;;;;;5.15;3.70;;;;;;;1.04;76.61;93449.41;5152147;27;20516;-73
2021/12/07 10:39:36;;;;;;;;;;;;;;;1.04;75.52;93449.41;5126229;27;20023;-73
2021/12/07 10:42:07;;;;;;;7.35;4.70;;;;;;;0.99;77.45;93443.78;5127733;27;20334;-73
2021/12/07 10:44:33;;;;;;;5.60;3.80;;;;;;;0.84;77.24;93441.34;5077460;28;20046;-73
2021/12/07 10:47:08;;;;;;;6.88;4.63;;;;;;;0.95;77.44;93442.34;5092486;28;20084;-73
2021/12/07 10:49:53;;;;;;;5.72;3.40;;;;;;;0.90;77.63;93450.34;5123640;28;20027;-73
2021/12/07 10:52:29;;;;;;;6.43;4.47;;;;;;;0.91;77.74;93448.59;5130966;27;20039;-73
2021/12/07 10:55:05;;;;;;;7.68;5.95;;;;;;;0.87;77.28;93436.00;5131133;27;20023;-73
2021/12/07 10:57:34;;;;;;;10.52;8.60;;;;;;;0.84;77.60;93431.09;5115484;28;20028;-73
2021/12/07 11:00:18;;;;;;;7.15;3.58;;;;;;;0.69;77.91;93411.66;5118095;27;20031;-73
2021/12/07 11:02:58;;;;;;;9.30;6.43;;;;;;;0.85;78.11;93412.28;5114828;27;20035;-73
2021/12/07 11:05:28;;;;;;;4.93;3.72;;;;;;;0.76;77.97;93407.78;5114444;28;20052;-74
2021/12/07 11:07:54;;;;;;;9.68;8.07;;;;;;;0.80;78.13;93409.22;5109506;28;20023;-73
2021/12/07 11:10:27;;;;;;;6.25;4.63;;;;;;;0.71;77.56;93393.69;5124935;28;20485;-73
2021/12/07 11:15:26;;;;;;;9.57;6.63;;;;;;;0.74;78.99;93417.28;5109171;28;20043;-73
2021/12/07 11:18:02;;;;;;;8.10;5.55;;;;;;;0.86;77.31;93424.16;5093179;28;20408;-73
2021/12/07 11:20:28;;;;;;;6.22;4.50;;;;;;;0.93;77.37;93434.78;5106812;28;20456;-73
2021/12/07 11:23:14;;;;;;;7.40;5.50;;;;;;;0.81;77.76;93413.41;5103193;28;20035;-73
2021/12/07 11:31:37;;;;;;;6.05;4.00;;;;;;;0.95;77.34;93412.50;5124401;28;20421;-71
2021/12/07 11:34:10;;;;;;;5.35;4.00;;;;;;;1.00;76.47;93405.31;5116497;27;20041;-72
2021/12/07 11:37:02;;;;;;;5.63;3.88;;;;;;;0.98;76.41;93402.06;5124783;27;20023;-71
2021/12/07 11:39:35;;;;;;;4.32;3.20;;;;;;;1.06;76.56;93412.59;5141162;27;20027;-72
2021/12/07 11:42:09;;;;;;;7.15;4.45;;;;;;;1.06;75.55;93404.09;5155700;27;20472;-72
2021/12/07 11:44:47;;;;;;;7.45;5.20;;;;;;;1.08;77.06;93412.47;5140822;27;20028;-72
2021/12/07 11:47:12;;;;;;;7.28;4.10;;;;;;;1.03;75.88;93411.94;5128575;27;20031;-71
2021/12/07 11:49:38;;;;;;;6.13;3.60;;;;;;;1.03;75.42;93414.50;5127796;27;20032;-73
2021/12/07 11:52:05;;;;;;;9.60;5.40;;;;;;;0.85;76.95;93399.50;5130550;27;20027;-73
2021/12/07 11:54:40;;;;;;;8.85;6.05;;;;;;;0.84;77.28;93392.75;5129638;27;20058;-73
2021/12/07 11:57:07;;;;;;;14.32;9.05;;;;;;;0.92;77.18;93410.16;5133357;27;20045;-73
2021/12/07 11:59:32;;;;;;;8.18;5.10;;;;;;;0.96;75.80;93413.31;5116654;27;20036;-74
2021/12/07 12:01:58;;;;;;;7.97;5.95;;;;;;;0.99;77.11;93410.53;5114020;28;20028;-73
2021/12/07 12:04:23;;;;;;;8.60;5.32;;;;;;;0.79;76.41;93402.47;5095570;28;20035;-73
2021/12/07 12:06:51;;;;;;;6.78;4.82;;;;;;;0.84;76.71;93410.66;5095792;28;20079;-73
2021/12/07 12:09:17;;;;;;;7.13;4.97;;;;;;;0.91;76.33;93403.38;5095867;28;20482;-73
2021/12/07 12:11:51;;;;;;;7.93;5.90;;;;;;;0.93;76.84;93405.84;5112696;28;20027;-73
2021/12/07 12:14:38;;;;;;;7.70;5.30;;;;;;;0.92;76.52;93410.16;5113796;28;20034;-73
2021/12/07 12:17:06;;;;;;;7.43;4.55;;;;;;;0.79;76.76;93407.59;5113598;28;20066;-73
2021/12/07 12:20:01;;;;;;;6.90;4.47;;;;;;;0.67;76.46;93400.75;5113693;28;20032;-73
2021/12/07 12:22:31;;;;;;;7.90;5.53;;;;;;;0.59;77.22;93406.38;5113679;28;20434;-74
2021/12/07 12:24:59;;;;;;;5.63;4.00;;;;;;;0.70;75.80;93392.88;5112318;28;20038;-73
2021/12/07 12:27:32;;;;;;;7.68;4.80;;;;;;;0.77;75.65;93380.47;5095433;28;20031;-73
2021/12/07 12:29:58;;;;;;;27.08;12.20;;;;;;;0.78;76.06;93395.72;5095505;28;20040;-73
2021/12/07 12:32:28;;;;;;;40.53;17.58;;;;;;;0.74;76.19;93396.03;5095131;28;20065;-73
2021/12/07 12:34:54;;;;;;;22.15;11.82;;;;;;;0.69;75.98;93386.09;5095128;28;20032;-73
2021/12/07 12:37:24;;;;;;;13.85;7.15;;;;;;;0.70;74.95;93386.91;5113293;28;20024;-73
2021/12/07 12:39:53;;;;;;;14.75;9.52;;;;;;;0.65;75.59;93390.59;5095568;28;20478;-73
2021/12/07 12:42:40;;;;;;;9.10;6.15;;;;;;;0.66;76.82;93407.56;5095206;28;20459;-73
2021/12/07 12:45:17;;;;;;;13.80;9.40;;;;;;;0.65;75.75;93412.81;5112871;28;20047;-73
2021/12/07 12:47:43;;;;;;;7.78;5.80;;;;;;;0.66;75.29;93411.88;5112789;28;20024;-73
2021/12/07 12:50:10;;;;;;;9.23;4.85;;;;;;;0.51;76.09;93402.69;5111826;28;20410;-73
2021/12/07 12:52:37;;;;;;;7.28;5.45;;;;;;;0.62;76.26;93413.00;5111780;28;20489;-74
2021/12/07 12:55:04;;;;;;;9.80;6.90;;;;;;;0.56;76.32;93408.31;5094770;28;20035;-73
2021/12/07 12:57:29;;;;;;;9.02;6.35;;;;;;;0.32;76.27;93401.31;5111581;28;20102;-73
2021/12/07 12:59:54;;;;;;;7.03;4.88;;;;;;;0.55;77.25;93420.25;5111381;28;20517;-73
2021/12/07 13:02:20;;;;;;;9.57;6.85;;;;;;;0.67;76.65;93426.31;5111532;28;20050;-73
2021/12/07 13:05:00;;;;;;;6.05;4.40;;;;;;;0.64;75.60;93434.16;5112538;28;20051;-73
2021/12/07 13:07:26;;;;;;;9.55;7.10;;;;;;;0.57;75.19;93423.53;5111352;28;20103;-73
2021/12/07 13:09:59;;;;;;;9.90;6.20;;;;;;;0.59;75.25;93426.81;5112713;28;20032;-73
2021/12/07 13:12:43;;;;;;;12.70;7.80;;;;;;;0.63;75.78;93433.34;5111670;28;20020;-73
2021/12/07 13:15:10;;;;;;;10.18;6.00;;;;;;;0.67;73.68;93416.09;5111141;28;20062;-73
2021/12/07 13:17:43;;;;;;;12.30;7.70;;;;;;;0.58;75.26;93416.66;5111131;28;20038;-73
2021/12/07 13:20:21;;;;;;;5.82;4.25;;;;;;;0.47;74.98;93427.59;5094440;28;20206;-73
2021/12/07 13:23:05;;;;;;;5.68;4.53;;;;;;;0.56;75.86;93433.88;5094270;28;20137;-73
2021/12/07 13:25:42;;;;;;;11.70;8.38;;;;;;;0.60;74.60;93433.53;5112827;28;20508;-73
2021/12/07 13:28:29;;;;;;;6.88;4.63;;;;;;;0.66;74.08;93437.44;5095330;28;20043;-73
2021/12/07 13:31:15;;;;;;;13.60;8.52;;;;;;;0.49;74.83;93438.53;5111080;28;20035;-73
2021/12/07 13:33:43;;;;;;;22.88;13.77;;;;;;;0.57;74.57;93438.06;5093807;28;20036;-73